sensor_id;sensor_type;location;lat;lon;timestamp;temperature;humidity
8459;DHT22;4266;48.816;9.154;2022-11-09T00:00:47;11.60;92.70
8459;DHT22;4266;48.816;9.154;2022-11-09T00:03:13;11.60;92.70
8459;DHT22;4266;48.816;9.154;2022-11-09T00:05:39;11.60;92.60
8459;DHT22;4266;48.816;9.154;2022-11-09T00:08:06;11.40;92.80
8459;DHT22;4266;48.816;9.154;2022-11-09T00:10:32;11.30;92.80
8459;DHT22;4266;48.816;9.154;2022-11-09T00:12:58;11.40;93.20
8459;DHT22;4266;48.816;9.154;2022-11-09T00:15:24;11.40;93.30
8459;DHT22;4266;48.816;9.154;2022-11-09T00:17:49;11.40;93.00
8459;DHT22;4266;48.816;9.154;2022-11-09T00:20:15;11.50;93.00
8459;DHT22;4266;48.816;9.154;2022-11-09T00:22:41;11.40;93.10
8459;DHT22;4266;48.816;9.154;2022-11-09T00:25:08;11.40;93.10
8459;DHT22;4266;48.816;9.154;2022-11-09T00:27:34;11.30;93.10
8459;DHT22;4266;48.816;9.154;2022-11-09T00:30:00;11.30;93.10
8459;DHT22;4266;48.816;9.154;2022-11-09T00:32:25;11.40;93.10
8459;DHT22;4266;48.816;9.154;2022-11-09T00:34:51;11.50;93.20
8459;DHT22;4266;48.816;9.154;2022-11-09T00:37:17;11.50;93.10
8459;DHT22;4266;48.816;9.154;2022-11-09T00:39:43;11.40;93.20
8459;DHT22;4266;48.816;9.154;2022-11-09T00:42:08;11.40;93.40
8459;DHT22;4266;48.816;9.154;2022-11-09T00:44:34;11.40;93.40
8459;DHT22;4266;48.816;9.154;2022-11-09T00:47:00;11.40;93.50
8459;DHT22;4266;48.816;9.154;2022-11-09T00:49:25;11.40;93.60
8459;DHT22;4266;48.816;9.154;2022-11-09T00:51:51;11.50;93.50
8459;DHT22;4266;48.816;9.154;2022-11-09T00:54:17;11.50;93.50
8459;DHT22;4266;48.816;9.154;2022-11-09T00:56:43;11.50;93.50
8459;DHT22;4266;48.816;9.154;2022-11-09T00:59:09;11.50;93.40
8459;DHT22;4266;48.816;9.154;2022-11-09T01:01:34;11.50;93.30
8459;DHT22;4266;48.816;9.154;2022-11-09T01:04:00;11.50;93.20
8459;DHT22;4266;48.816;9.154;2022-11-09T01:06:27;11.60;93.10
8459;DHT22;4266;48.816;9.154;2022-11-09T01:08:53;11.60;93.10
8459;DHT22;4266;48.816;9.154;2022-11-09T01:11:19;11.60;93.10
8459;DHT22;4266;48.816;9.154;2022-11-09T01:13:44;11.70;93.00
8459;DHT22;4266;48.816;9.154;2022-11-09T01:16:11;11.70;92.90
8459;DHT22;4266;48.816;9.154;2022-11-09T01:18:36;11.70;92.90
8459;DHT22;4266;48.816;9.154;2022-11-09T01:21:03;11.70;92.80
8459;DHT22;4266;48.816;9.154;2022-11-09T01:23:30;12.10;92.20
8459;DHT22;4266;48.816;9.154;2022-11-09T01:25:58;12.10;92.20
8459;DHT22;4266;48.816;9.154;2022-11-09T01:28:23;12.50;91.50
8459;DHT22;4266;48.816;9.154;2022-11-09T01:30:50;12.50;91.50
8459;DHT22;4266;48.816;9.154;2022-11-09T01:33:16;12.50;91.50
8459;DHT22;4266;48.816;9.154;2022-11-09T01:35:41;12.50;91.50
8459;DHT22;4266;48.816;9.154;2022-11-09T01:38:08;12.50;91.20
8459;DHT22;4266;48.816;9.154;2022-11-09T01:40:33;12.70;91.20
8459;DHT22;4266;48.816;9.154;2022-11-09T01:45:31;12.40;91.40
8459;DHT22;4266;48.816;9.154;2022-11-09T01:48:13;12.50;91.50
8459;DHT22;4266;48.816;9.154;2022-11-09T01:50:42;12.30;91.70
8459;DHT22;4266;48.816;9.154;2022-11-09T01:53:07;12.30;91.70
8459;DHT22;4266;48.816;9.154;2022-11-09T01:55:31;12.30;91.70
8459;DHT22;4266;48.816;9.154;2022-11-09T01:58:07;12.40;91.90
8459;DHT22;4266;48.816;9.154;2022-11-09T02:00:32;12.30;91.90
8459;DHT22;4266;48.816;9.154;2022-11-09T02:02:59;12.40;91.90
8459;DHT22;4266;48.816;9.154;2022-11-09T02:05:24;12.40;91.80
8459;DHT22;4266;48.816;9.154;2022-11-09T02:07:50;12.40;91.80
8459;DHT22;4266;48.816;9.154;2022-11-09T02:10:36;12.40;91.80
8459;DHT22;4266;48.816;9.154;2022-11-09T02:12:58;12.40;91.60
8459;DHT22;4266;48.816;9.154;2022-11-09T02:15:25;12.90;90.80
8459;DHT22;4266;48.816;9.154;2022-11-09T02:17:51;12.90;90.80
8459;DHT22;4266;48.816;9.154;2022-11-09T02:20:16;13.20;90.60
8459;DHT22;4266;48.816;9.154;2022-11-09T02:22:42;13.30;90.40
8459;DHT22;4266;48.816;9.154;2022-11-09T02:25:08;13.20;90.60
8459;DHT22;4266;48.816;9.154;2022-11-09T02:27:34;13.20;90.80
8459;DHT22;4266;48.816;9.154;2022-11-09T02:30:00;13.10;90.70
8459;DHT22;4266;48.816;9.154;2022-11-09T02:32:27;13.10;90.70
8459;DHT22;4266;48.816;9.154;2022-11-09T02:34:52;13.10;90.80
8459;DHT22;4266;48.816;9.154;2022-11-09T02:37:29;13.10;90.70
8459;DHT22;4266;48.816;9.154;2022-11-09T02:39:54;13.20;90.70
8459;DHT22;4266;48.816;9.154;2022-11-09T02:42:19;13.10;90.70
8459;DHT22;4266;48.816;9.154;2022-11-09T02:44:47;13.10;90.60
8459;DHT22;4266;48.816;9.154;2022-11-09T02:47:11;13.10;90.60
8459;DHT22;4266;48.816;9.154;2022-11-09T02:49:36;13.00;90.80
8459;DHT22;4266;48.816;9.154;2022-11-09T02:52:03;13.00;90.70
8459;DHT22;4266;48.816;9.154;2022-11-09T02:54:29;13.00;90.70
8459;DHT22;4266;48.816;9.154;2022-11-09T02:56:54;13.00;90.90
8459;DHT22;4266;48.816;9.154;2022-11-09T02:59:20;12.90;90.90
8459;DHT22;4266;48.816;9.154;2022-11-09T03:01:46;12.90;91.20
8459;DHT22;4266;48.816;9.154;2022-11-09T03:04:12;12.90;91.00
8459;DHT22;4266;48.816;9.154;2022-11-09T03:06:37;12.90;91.00
8459;DHT22;4266;48.816;9.154;2022-11-09T03:09:04;12.90;90.90
8459;DHT22;4266;48.816;9.154;2022-11-09T03:11:29;12.90;91.20
8459;DHT22;4266;48.816;9.154;2022-11-09T03:13:55;12.90;91.50
8459;DHT22;4266;48.816;9.154;2022-11-09T03:16:21;12.80;91.80
8459;DHT22;4266;48.816;9.154;2022-11-09T03:18:46;12.80;92.60
8459;DHT22;4266;48.816;9.154;2022-11-09T03:21:12;12.60;93.10
8459;DHT22;4266;48.816;9.154;2022-11-09T03:23:38;12.40;93.80
8459;DHT22;4266;48.816;9.154;2022-11-09T03:26:05;12.40;94.40
8459;DHT22;4266;48.816;9.154;2022-11-09T03:28:31;12.30;95.50
8459;DHT22;4266;48.816;9.154;2022-11-09T03:30:57;12.30;95.50
8459;DHT22;4266;48.816;9.154;2022-11-09T03:33:23;12.10;95.60
8459;DHT22;4266;48.816;9.154;2022-11-09T03:35:48;11.90;97.20
8459;DHT22;4266;48.816;9.154;2022-11-09T03:38:14;11.90;98.20
8459;DHT22;4266;48.816;9.154;2022-11-09T03:40:40;12.00;97.50
8459;DHT22;4266;48.816;9.154;2022-11-09T03:43:05;12.00;96.60
8459;DHT22;4266;48.816;9.154;2022-11-09T03:45:31;12.00;97.30
8459;DHT22;4266;48.816;9.154;2022-11-09T03:47:57;12.00;98.20
8459;DHT22;4266;48.816;9.154;2022-11-09T03:50:23;12.00;97.40
8459;DHT22;4266;48.816;9.154;2022-11-09T03:52:48;12.10;97.10
8459;DHT22;4266;48.816;9.154;2022-11-09T03:55:14;12.10;97.60
8459;DHT22;4266;48.816;9.154;2022-11-09T03:57:40;12.00;98.30
8459;DHT22;4266;48.816;9.154;2022-11-09T04:00:07;11.90;98.90
8459;DHT22;4266;48.816;9.154;2022-11-09T04:02:33;11.80;99.40
8459;DHT22;4266;48.816;9.154;2022-11-09T04:04:59;11.70;99.80
8459;DHT22;4266;48.816;9.154;2022-11-09T04:07:24;11.60;99.90
8459;DHT22;4266;48.816;9.154;2022-11-09T04:09:50;11.70;99.90
8459;DHT22;4266;48.816;9.154;2022-11-09T04:12:16;11.70;99.90
8459;DHT22;4266;48.816;9.154;2022-11-09T04:14:42;11.70;99.90
8459;DHT22;4266;48.816;9.154;2022-11-09T04:17:08;11.70;99.90
8459;DHT22;4266;48.816;9.154;2022-11-09T04:19:34;11.60;99.90
8459;DHT22;4266;48.816;9.154;2022-11-09T04:22:00;11.60;99.90
8459;DHT22;4266;48.816;9.154;2022-11-09T04:24:26;11.60;99.90
8459;DHT22;4266;48.816;9.154;2022-11-09T04:26:52;11.50;99.90
8459;DHT22;4266;48.816;9.154;2022-11-09T04:29:18;11.60;99.90
8459;DHT22;4266;48.816;9.154;2022-11-09T04:31:43;11.60;99.90
8459;DHT22;4266;48.816;9.154;2022-11-09T04:34:09;11.60;99.90
8459;DHT22;4266;48.816;9.154;2022-11-09T04:36:35;11.60;99.90
8459;DHT22;4266;48.816;9.154;2022-11-09T04:39:00;11.40;99.90
8459;DHT22;4266;48.816;9.154;2022-11-09T04:41:26;11.20;99.90
8459;DHT22;4266;48.816;9.154;2022-11-09T04:43:52;11.20;99.90
8459;DHT22;4266;48.816;9.154;2022-11-09T04:46:18;11.20;99.90
8459;DHT22;4266;48.816;9.154;2022-11-09T04:48:43;11.20;99.90
8459;DHT22;4266;48.816;9.154;2022-11-09T04:51:09;11.20;99.90
8459;DHT22;4266;48.816;9.154;2022-11-09T04:53:36;11.10;99.90
8459;DHT22;4266;48.816;9.154;2022-11-09T04:56:03;11.00;99.90
8459;DHT22;4266;48.816;9.154;2022-11-09T04:58:28;11.00;99.90
8459;DHT22;4266;48.816;9.154;2022-11-09T05:00:54;11.00;99.90
8459;DHT22;4266;48.816;9.154;2022-11-09T05:03:20;10.90;99.90
8459;DHT22;4266;48.816;9.154;2022-11-09T05:05:45;10.90;99.90
8459;DHT22;4266;48.816;9.154;2022-11-09T05:08:11;10.80;99.90
8459;DHT22;4266;48.816;9.154;2022-11-09T05:10:37;10.80;99.90
8459;DHT22;4266;48.816;9.154;2022-11-09T05:13:04;10.80;99.90
8459;DHT22;4266;48.816;9.154;2022-11-09T05:15:29;10.80;99.90
8459;DHT22;4266;48.816;9.154;2022-11-09T05:17:55;10.80;99.90
8459;DHT22;4266;48.816;9.154;2022-11-09T05:20:20;10.70;99.90
8459;DHT22;4266;48.816;9.154;2022-11-09T05:22:46;10.70;99.90
8459;DHT22;4266;48.816;9.154;2022-11-09T05:25:18;10.60;99.90
8459;DHT22;4266;48.816;9.154;2022-11-09T05:27:44;10.50;99.90
8459;DHT22;4266;48.816;9.154;2022-11-09T05:30:11;10.60;99.90
8459;DHT22;4266;48.816;9.154;2022-11-09T05:32:38;10.60;99.90
8459;DHT22;4266;48.816;9.154;2022-11-09T05:35:04;10.50;99.90
8459;DHT22;4266;48.816;9.154;2022-11-09T05:37:30;10.50;99.90
8459;DHT22;4266;48.816;9.154;2022-11-09T05:39:56;10.50;99.90
8459;DHT22;4266;48.816;9.154;2022-11-09T05:42:23;10.40;99.90
8459;DHT22;4266;48.816;9.154;2022-11-09T05:44:49;10.40;99.90
8459;DHT22;4266;48.816;9.154;2022-11-09T05:47:15;10.40;99.90
8459;DHT22;4266;48.816;9.154;2022-11-09T05:49:41;10.40;99.90
8459;DHT22;4266;48.816;9.154;2022-11-09T05:52:08;10.30;99.90
8459;DHT22;4266;48.816;9.154;2022-11-09T05:54:34;10.30;99.90
8459;DHT22;4266;48.816;9.154;2022-11-09T05:57:00;10.30;99.90
8459;DHT22;4266;48.816;9.154;2022-11-09T05:59:25;10.30;99.90
8459;DHT22;4266;48.816;9.154;2022-11-09T06:01:51;10.20;99.90
8459;DHT22;4266;48.816;9.154;2022-11-09T06:04:17;10.20;99.90
8459;DHT22;4266;48.816;9.154;2022-11-09T06:06:43;10.20;99.90
8459;DHT22;4266;48.816;9.154;2022-11-09T06:09:08;10.20;99.90
8459;DHT22;4266;48.816;9.154;2022-11-09T06:11:34;10.20;99.90
8459;DHT22;4266;48.816;9.154;2022-11-09T06:14:01;10.30;99.90
8459;DHT22;4266;48.816;9.154;2022-11-09T06:16:26;10.30;99.90
8459;DHT22;4266;48.816;9.154;2022-11-09T06:18:52;10.30;99.90
8459;DHT22;4266;48.816;9.154;2022-11-09T06:21:18;10.40;99.90
8459;DHT22;4266;48.816;9.154;2022-11-09T06:23:43;10.30;99.90
8459;DHT22;4266;48.816;9.154;2022-11-09T06:26:09;10.30;99.90
8459;DHT22;4266;48.816;9.154;2022-11-09T06:28:36;10.40;99.90
8459;DHT22;4266;48.816;9.154;2022-11-09T06:31:02;10.30;99.90
8459;DHT22;4266;48.816;9.154;2022-11-09T06:33:29;10.30;99.90
8459;DHT22;4266;48.816;9.154;2022-11-09T06:35:55;10.40;99.90
8459;DHT22;4266;48.816;9.154;2022-11-09T06:38:21;10.50;99.90
8459;DHT22;4266;48.816;9.154;2022-11-09T06:40:50;10.40;99.90
8459;DHT22;4266;48.816;9.154;2022-11-09T06:43:16;10.40;99.90
8459;DHT22;4266;48.816;9.154;2022-11-09T06:45:41;10.50;99.90
8459;DHT22;4266;48.816;9.154;2022-11-09T06:48:08;10.50;99.90
8459;DHT22;4266;48.816;9.154;2022-11-09T06:50:33;10.50;99.90
8459;DHT22;4266;48.816;9.154;2022-11-09T06:53:00;10.60;99.90
8459;DHT22;4266;48.816;9.154;2022-11-09T06:55:25;10.60;99.90
8459;DHT22;4266;48.816;9.154;2022-11-09T06:57:51;10.60;99.90
8459;DHT22;4266;48.816;9.154;2022-11-09T07:00:17;10.70;99.90
8459;DHT22;4266;48.816;9.154;2022-11-09T07:02:44;10.70;99.90
8459;DHT22;4266;48.816;9.154;2022-11-09T07:05:09;10.90;99.90
8459;DHT22;4266;48.816;9.154;2022-11-09T07:07:36;10.90;99.90
8459;DHT22;4266;48.816;9.154;2022-11-09T07:10:02;10.90;99.90
8459;DHT22;4266;48.816;9.154;2022-11-09T07:12:28;11.00;99.90
8459;DHT22;4266;48.816;9.154;2022-11-09T07:14:53;11.00;99.90
8459;DHT22;4266;48.816;9.154;2022-11-09T07:17:20;11.00;99.90
8459;DHT22;4266;48.816;9.154;2022-11-09T07:19:46;11.00;99.90
8459;DHT22;4266;48.816;9.154;2022-11-09T07:22:12;11.00;99.90
8459;DHT22;4266;48.816;9.154;2022-11-09T07:24:38;11.00;99.90
8459;DHT22;4266;48.816;9.154;2022-11-09T07:27:03;11.00;99.90
8459;DHT22;4266;48.816;9.154;2022-11-09T07:29:29;11.10;99.90
8459;DHT22;4266;48.816;9.154;2022-11-09T07:31:55;11.20;99.90
8459;DHT22;4266;48.816;9.154;2022-11-09T07:34:21;11.20;99.90
8459;DHT22;4266;48.816;9.154;2022-11-09T07:36:46;11.20;99.90
8459;DHT22;4266;48.816;9.154;2022-11-09T07:39:12;11.30;99.90
8459;DHT22;4266;48.816;9.154;2022-11-09T07:41:38;11.30;99.90
8459;DHT22;4266;48.816;9.154;2022-11-09T07:44:03;11.30;99.90
8459;DHT22;4266;48.816;9.154;2022-11-09T07:46:29;11.40;99.90
8459;DHT22;4266;48.816;9.154;2022-11-09T07:48:55;11.40;99.90
8459;DHT22;4266;48.816;9.154;2022-11-09T07:51:21;11.40;99.90
8459;DHT22;4266;48.816;9.154;2022-11-09T07:53:46;11.50;99.90
8459;DHT22;4266;48.816;9.154;2022-11-09T07:56:12;11.50;99.90
8459;DHT22;4266;48.816;9.154;2022-11-09T07:58:38;11.60;99.90
8459;DHT22;4266;48.816;9.154;2022-11-09T08:01:07;11.60;99.90
8459;DHT22;4266;48.816;9.154;2022-11-09T08:03:32;11.60;99.90
8459;DHT22;4266;48.816;9.154;2022-11-09T08:05:58;11.60;99.90
8459;DHT22;4266;48.816;9.154;2022-11-09T08:08:24;11.70;99.90
8459;DHT22;4266;48.816;9.154;2022-11-09T08:10:50;11.70;99.90
8459;DHT22;4266;48.816;9.154;2022-11-09T08:13:16;11.70;99.90
8459;DHT22;4266;48.816;9.154;2022-11-09T08:15:42;11.80;99.90
8459;DHT22;4266;48.816;9.154;2022-11-09T08:18:16;11.80;99.90
8459;DHT22;4266;48.816;9.154;2022-11-09T08:20:38;11.90;99.90
8459;DHT22;4266;48.816;9.154;2022-11-09T08:23:04;12.00;99.90
8459;DHT22;4266;48.816;9.154;2022-11-09T08:25:31;12.10;99.90
8459;DHT22;4266;48.816;9.154;2022-11-09T08:27:56;12.00;99.90
8459;DHT22;4266;48.816;9.154;2022-11-09T08:30:22;12.00;99.90
8459;DHT22;4266;48.816;9.154;2022-11-09T08:32:48;12.00;99.90
8459;DHT22;4266;48.816;9.154;2022-11-09T08:35:16;12.00;99.90
8459;DHT22;4266;48.816;9.154;2022-11-09T08:37:40;12.00;99.90
8459;DHT22;4266;48.816;9.154;2022-11-09T08:40:07;12.00;99.90
8459;DHT22;4266;48.816;9.154;2022-11-09T08:42:33;12.00;99.90
8459;DHT22;4266;48.816;9.154;2022-11-09T08:44:59;12.10;99.90
8459;DHT22;4266;48.816;9.154;2022-11-09T08:47:27;12.20;99.90
8459;DHT22;4266;48.816;9.154;2022-11-09T08:49:52;12.10;99.90
8459;DHT22;4266;48.816;9.154;2022-11-09T08:52:18;12.10;99.90
8459;DHT22;4266;48.816;9.154;2022-11-09T08:54:44;12.20;99.90
8459;DHT22;4266;48.816;9.154;2022-11-09T08:57:10;12.30;99.90
8459;DHT22;4266;48.816;9.154;2022-11-09T08:59:36;12.20;99.90
8459;DHT22;4266;48.816;9.154;2022-11-09T09:02:03;12.30;99.90
8459;DHT22;4266;48.816;9.154;2022-11-09T09:04:29;12.20;99.90
8459;DHT22;4266;48.816;9.154;2022-11-09T09:06:55;12.20;99.90
8459;DHT22;4266;48.816;9.154;2022-11-09T09:09:21;12.20;99.90
8459;DHT22;4266;48.816;9.154;2022-11-09T09:11:47;12.20;99.90
8459;DHT22;4266;48.816;9.154;2022-11-09T09:14:14;12.20;99.90
8459;DHT22;4266;48.816;9.154;2022-11-09T09:16:39;12.20;99.90
8459;DHT22;4266;48.816;9.154;2022-11-09T09:19:05;12.30;99.90
8459;DHT22;4266;48.816;9.154;2022-11-09T09:21:31;12.30;99.90
8459;DHT22;4266;48.816;9.154;2022-11-09T09:23:57;12.40;99.90
8459;DHT22;4266;48.816;9.154;2022-11-09T09:26:23;12.50;99.90
8459;DHT22;4266;48.816;9.154;2022-11-09T09:28:49;12.50;99.90
8459;DHT22;4266;48.816;9.154;2022-11-09T09:31:16;12.70;99.90
8459;DHT22;4266;48.816;9.154;2022-11-09T09:33:42;12.60;99.90
8459;DHT22;4266;48.816;9.154;2022-11-09T09:36:13;12.80;99.90
8459;DHT22;4266;48.816;9.154;2022-11-09T09:38:35;12.80;99.90
8459;DHT22;4266;48.816;9.154;2022-11-09T09:41:02;12.90;99.90
8459;DHT22;4266;48.816;9.154;2022-11-09T09:43:36;13.10;99.90
8459;DHT22;4266;48.816;9.154;2022-11-09T09:46:01;13.20;99.90
8459;DHT22;4266;48.816;9.154;2022-11-09T09:48:38;13.20;99.90
8459;DHT22;4266;48.816;9.154;2022-11-09T09:51:09;13.20;99.90
8459;DHT22;4266;48.816;9.154;2022-11-09T09:53:34;13.40;99.90
8459;DHT22;4266;48.816;9.154;2022-11-09T09:56:03;13.30;99.90
8459;DHT22;4266;48.816;9.154;2022-11-09T09:58:30;13.50;99.90
8459;DHT22;4266;48.816;9.154;2022-11-09T10:01:01;13.40;99.90
8459;DHT22;4266;48.816;9.154;2022-11-09T10:03:25;13.70;99.90
8459;DHT22;4266;48.816;9.154;2022-11-09T10:06:13;13.70;99.90
8459;DHT22;4266;48.816;9.154;2022-11-09T10:08:43;13.90;99.90
8459;DHT22;4266;48.816;9.154;2022-11-09T10:11:35;14.00;99.90
8459;DHT22;4266;48.816;9.154;2022-11-09T10:14:19;14.00;99.90
8459;DHT22;4266;48.816;9.154;2022-11-09T10:16:48;14.10;99.90
8459;DHT22;4266;48.816;9.154;2022-11-09T10:19:24;14.30;99.90
8459;DHT22;4266;48.816;9.154;2022-11-09T10:21:51;14.50;99.90
8459;DHT22;4266;48.816;9.154;2022-11-09T10:24:39;14.60;99.90
8459;DHT22;4266;48.816;9.154;2022-11-09T10:27:05;14.80;99.90
8459;DHT22;4266;48.816;9.154;2022-11-09T10:29:38;14.80;99.90
8459;DHT22;4266;48.816;9.154;2022-11-09T10:32:13;15.00;99.90
8459;DHT22;4266;48.816;9.154;2022-11-09T10:34:55;15.10;99.90
8459;DHT22;4266;48.816;9.154;2022-11-09T10:37:26;15.40;99.90
8459;DHT22;4266;48.816;9.154;2022-11-09T10:39:51;15.40;99.90
8459;DHT22;4266;48.816;9.154;2022-11-09T10:42:16;15.60;99.90
8459;DHT22;4266;48.816;9.154;2022-11-09T10:44:42;16.00;99.90
8459;DHT22;4266;48.816;9.154;2022-11-09T10:47:10;16.10;99.90
8459;DHT22;4266;48.816;9.154;2022-11-09T10:49:35;16.10;99.90
8459;DHT22;4266;48.816;9.154;2022-11-09T10:52:00;16.10;99.90
8459;DHT22;4266;48.816;9.154;2022-11-09T10:54:28;16.10;99.90
8459;DHT22;4266;48.816;9.154;2022-11-09T10:57:02;16.00;99.90
8459;DHT22;4266;48.816;9.154;2022-11-09T10:59:36;16.10;99.90
8459;DHT22;4266;48.816;9.154;2022-11-09T11:02:00;16.10;99.90
8459;DHT22;4266;48.816;9.154;2022-11-09T11:04:27;16.20;99.90
8459;DHT22;4266;48.816;9.154;2022-11-09T11:06:52;15.90;99.90
8459;DHT22;4266;48.816;9.154;2022-11-09T11:09:19;15.90;99.90
8459;DHT22;4266;48.816;9.154;2022-11-09T11:11:44;16.00;99.90
8459;DHT22;4266;48.816;9.154;2022-11-09T11:14:29;16.10;99.90
8459;DHT22;4266;48.816;9.154;2022-11-09T11:16:53;16.00;99.90
8459;DHT22;4266;48.816;9.154;2022-11-09T11:19:25;16.30;99.90
8459;DHT22;4266;48.816;9.154;2022-11-09T11:22:27;16.30;99.90
8459;DHT22;4266;48.816;9.154;2022-11-09T11:24:41;16.30;99.90
8459;DHT22;4266;48.816;9.154;2022-11-09T11:27:10;16.30;99.90
8459;DHT22;4266;48.816;9.154;2022-11-09T11:29:42;16.10;99.90
8459;DHT22;4266;48.816;9.154;2022-11-09T11:32:12;16.00;99.90
8459;DHT22;4266;48.816;9.154;2022-11-09T11:34:36;15.90;99.90
8459;DHT22;4266;48.816;9.154;2022-11-09T11:37:07;15.90;99.90
8459;DHT22;4266;48.816;9.154;2022-11-09T11:39:48;15.90;99.90
8459;DHT22;4266;48.816;9.154;2022-11-09T11:43:27;15.70;99.90
8459;DHT22;4266;48.816;9.154;2022-11-09T11:45:26;15.50;99.90
8459;DHT22;4266;48.816;9.154;2022-11-09T11:50:42;15.40;99.90
8459;DHT22;4266;48.816;9.154;2022-11-09T11:53:15;15.40;99.90
8459;DHT22;4266;48.816;9.154;2022-11-09T11:55:49;15.50;99.90
8459;DHT22;4266;48.816;9.154;2022-11-09T11:58:22;15.60;99.90
8459;DHT22;4266;48.816;9.154;2022-11-09T12:00:50;15.80;99.90
8459;DHT22;4266;48.816;9.154;2022-11-09T12:03:25;15.90;99.90
8459;DHT22;4266;48.816;9.154;2022-11-09T12:06:11;15.80;99.90
8459;DHT22;4266;48.816;9.154;2022-11-09T12:08:56;15.70;99.90
8459;DHT22;4266;48.816;9.154;2022-11-09T12:11:27;15.70;99.90
8459;DHT22;4266;48.816;9.154;2022-11-09T12:13:54;15.60;99.90
8459;DHT22;4266;48.816;9.154;2022-11-09T12:16:26;15.90;99.90
8459;DHT22;4266;48.816;9.154;2022-11-09T12:18:54;15.90;99.90
8459;DHT22;4266;48.816;9.154;2022-11-09T12:21:22;15.90;99.90
8459;DHT22;4266;48.816;9.154;2022-11-09T12:23:51;15.80;99.90
8459;DHT22;4266;48.816;9.154;2022-11-09T12:26:19;15.80;99.90
8459;DHT22;4266;48.816;9.154;2022-11-09T12:29:13;15.70;99.90
8459;DHT22;4266;48.816;9.154;2022-11-09T12:34:41;15.80;99.90
8459;DHT22;4266;48.816;9.154;2022-11-09T12:37:06;15.80;99.90
8459;DHT22;4266;48.816;9.154;2022-11-09T12:39:35;15.90;99.90
8459;DHT22;4266;48.816;9.154;2022-11-09T12:42:03;15.90;99.90
8459;DHT22;4266;48.816;9.154;2022-11-09T12:44:27;16.10;99.90
8459;DHT22;4266;48.816;9.154;2022-11-09T12:46:58;15.90;99.90
8459;DHT22;4266;48.816;9.154;2022-11-09T12:49:33;16.00;99.90
8459;DHT22;4266;48.816;9.154;2022-11-09T12:51:57;16.10;99.90
8459;DHT22;4266;48.816;9.154;2022-11-09T12:54:22;16.10;99.90
8459;DHT22;4266;48.816;9.154;2022-11-09T12:56:51;16.10;99.90
8459;DHT22;4266;48.816;9.154;2022-11-09T12:59:20;16.20;99.90
8459;DHT22;4266;48.816;9.154;2022-11-09T13:01:49;16.20;99.90
8459;DHT22;4266;48.816;9.154;2022-11-09T13:04:15;16.10;99.90
8459;DHT22;4266;48.816;9.154;2022-11-09T13:06:39;16.10;99.90
8459;DHT22;4266;48.816;9.154;2022-11-09T13:09:22;16.10;99.90
8459;DHT22;4266;48.816;9.154;2022-11-09T13:11:47;16.20;99.90
8459;DHT22;4266;48.816;9.154;2022-11-09T13:19:50;16.10;99.90
8459;DHT22;4266;48.816;9.154;2022-11-09T13:23:03;16.20;99.90
8459;DHT22;4266;48.816;9.154;2022-11-09T13:27:49;16.00;99.90
8459;DHT22;4266;48.816;9.154;2022-11-09T13:30:38;16.00;99.90
8459;DHT22;4266;48.816;9.154;2022-11-09T13:33:16;15.90;99.90
8459;DHT22;4266;48.816;9.154;2022-11-09T13:35:57;16.00;99.90
8459;DHT22;4266;48.816;9.154;2022-11-09T13:38:22;15.90;99.90
8459;DHT22;4266;48.816;9.154;2022-11-09T13:40:52;15.90;99.90
8459;DHT22;4266;48.816;9.154;2022-11-09T13:43:25;15.90;99.90
8459;DHT22;4266;48.816;9.154;2022-11-09T13:45:58;15.90;99.90
8459;DHT22;4266;48.816;9.154;2022-11-09T13:48:28;15.80;99.90
8459;DHT22;4266;48.816;9.154;2022-11-09T13:50:50;15.70;99.90
8459;DHT22;4266;48.816;9.154;2022-11-09T13:53:27;15.80;99.90
8459;DHT22;4266;48.816;9.154;2022-11-09T13:55:52;15.80;99.90
8459;DHT22;4266;48.816;9.154;2022-11-09T13:58:24;15.70;99.90
8459;DHT22;4266;48.816;9.154;2022-11-09T14:00:47;15.70;99.90
8459;DHT22;4266;48.816;9.154;2022-11-09T14:03:22;15.70;99.90
8459;DHT22;4266;48.816;9.154;2022-11-09T14:05:49;15.60;99.90
8459;DHT22;4266;48.816;9.154;2022-11-09T14:08:32;15.50;99.90
8459;DHT22;4266;48.816;9.154;2022-11-09T14:11:10;15.50;99.90
8459;DHT22;4266;48.816;9.154;2022-11-09T14:13:37;15.50;99.90
8459;DHT22;4266;48.816;9.154;2022-11-09T14:16:10;15.50;99.90
8459;DHT22;4266;48.816;9.154;2022-11-09T14:21:45;15.60;99.90
8459;DHT22;4266;48.816;9.154;2022-11-09T14:24:14;15.50;99.90
8459;DHT22;4266;48.816;9.154;2022-11-09T14:26:38;15.40;99.90
8459;DHT22;4266;48.816;9.154;2022-11-09T14:29:20;15.40;99.90
8459;DHT22;4266;48.816;9.154;2022-11-09T14:31:45;15.30;99.90
8459;DHT22;4266;48.816;9.154;2022-11-09T14:34:11;15.20;99.90
8459;DHT22;4266;48.816;9.154;2022-11-09T14:36:38;15.20;99.90
8459;DHT22;4266;48.816;9.154;2022-11-09T14:39:04;15.20;99.90
8459;DHT22;4266;48.816;9.154;2022-11-09T14:41:29;15.10;99.90
8459;DHT22;4266;48.816;9.154;2022-11-09T14:43:56;15.10;99.90
8459;DHT22;4266;48.816;9.154;2022-11-09T14:46:23;15.10;99.90
8459;DHT22;4266;48.816;9.154;2022-11-09T14:48:52;15.10;99.90
8459;DHT22;4266;48.816;9.154;2022-11-09T14:51:16;15.10;99.90
8459;DHT22;4266;48.816;9.154;2022-11-09T14:53:42;15.00;99.90
8459;DHT22;4266;48.816;9.154;2022-11-09T14:56:08;15.00;99.90
8459;DHT22;4266;48.816;9.154;2022-11-09T14:58:35;14.90;99.90
8459;DHT22;4266;48.816;9.154;2022-11-09T15:01:20;14.90;99.90
8459;DHT22;4266;48.816;9.154;2022-11-09T15:04:03;14.70;99.90
8459;DHT22;4266;48.816;9.154;2022-11-09T15:06:12;14.70;99.90
8459;DHT22;4266;48.816;9.154;2022-11-09T15:08:37;14.70;99.90
8459;DHT22;4266;48.816;9.154;2022-11-09T15:11:03;14.60;99.90
8459;DHT22;4266;48.816;9.154;2022-11-09T15:13:32;14.50;99.90
8459;DHT22;4266;48.816;9.154;2022-11-09T15:15:56;14.50;99.90
8459;DHT22;4266;48.816;9.154;2022-11-09T15:18:25;14.40;99.90
8459;DHT22;4266;48.816;9.154;2022-11-09T15:21:08;14.40;99.90
8459;DHT22;4266;48.816;9.154;2022-11-09T15:23:23;14.30;99.90
8459;DHT22;4266;48.816;9.154;2022-11-09T15:25:53;14.20;99.90
8459;DHT22;4266;48.816;9.154;2022-11-09T15:28:21;14.20;99.90
8459;DHT22;4266;48.816;9.154;2022-11-09T15:30:47;14.20;99.90
8459;DHT22;4266;48.816;9.154;2022-11-09T15:36:20;14.10;99.90
8459;DHT22;4266;48.816;9.154;2022-11-09T15:38:53;14.10;99.90
8459;DHT22;4266;48.816;9.154;2022-11-09T15:41:12;14.00;99.90
8459;DHT22;4266;48.816;9.154;2022-11-09T15:43:36;14.10;99.90
8459;DHT22;4266;48.816;9.154;2022-11-09T15:46:03;14.00;99.90
8459;DHT22;4266;48.816;9.154;2022-11-09T15:48:28;14.00;99.90
8459;DHT22;4266;48.816;9.154;2022-11-09T15:50:54;14.00;99.90
8459;DHT22;4266;48.816;9.154;2022-11-09T15:53:20;14.00;99.90
8459;DHT22;4266;48.816;9.154;2022-11-09T15:55:46;13.90;99.90
8459;DHT22;4266;48.816;9.154;2022-11-09T15:58:13;14.00;99.90
8459;DHT22;4266;48.816;9.154;2022-11-09T16:00:38;13.90;99.90
8459;DHT22;4266;48.816;9.154;2022-11-09T16:03:03;13.90;99.90
8459;DHT22;4266;48.816;9.154;2022-11-09T16:05:29;13.70;99.90
8459;DHT22;4266;48.816;9.154;2022-11-09T16:07:55;13.70;99.90
8459;DHT22;4266;48.816;9.154;2022-11-09T16:10:21;13.60;99.90
8459;DHT22;4266;48.816;9.154;2022-11-09T16:12:49;13.50;99.90
8459;DHT22;4266;48.816;9.154;2022-11-09T16:15:15;13.50;99.90
8459;DHT22;4266;48.816;9.154;2022-11-09T16:17:40;13.40;99.90
8459;DHT22;4266;48.816;9.154;2022-11-09T16:20:07;13.40;99.90
8459;DHT22;4266;48.816;9.154;2022-11-09T16:22:33;13.30;99.90
8459;DHT22;4266;48.816;9.154;2022-11-09T16:24:58;13.40;99.90
8459;DHT22;4266;48.816;9.154;2022-11-09T16:27:24;13.40;99.90